Time;durP1;ratioP1;P1;durP2;ratioP2;P2;SDS_P1;SDS_P2;PMS_P1;PMS_P2;Temp;Humidity;BMP_temperature;BMP_pressure;BME280_temperature;BME280_humidity;BME280_pressure;Samples;Min_cycle;Max_cycle;Signal;HPM_P1;HPM_P2
2022/08/28 00:00:47;;;;;;;0.10;0.10;;;;;;;13.93;85.27;101867.16;4994803;28;20034;-70
2022/08/28 00:03:13;;;;;;;0.10;0.10;;;;;;;13.88;85.07;101874.75;5001646;28;20073;-70
2022/08/28 00:05:40;;;;;;;0.00;0.00;;;;;;;13.82;85.29;101867.09;5002268;28;20590;-70
2022/08/28 00:08:06;;;;;;;0.10;0.10;;;;;;;13.78;85.36;101871.88;4998835;28;20025;-70
2022/08/28 00:10:32;;;;;;;0.10;0.10;;;;;;;13.70;85.60;101873.44;5001473;28;20025;-70
2022/08/28 00:12:57;;;;;;;0.10;0.10;;;;;;;13.63;86.29;101876.59;4999031;28;20490;-71
2022/08/28 00:15:29;;;;;;;0.00;0.00;;;;;;;13.53;86.43;101872.00;5000899;28;20136;-70
2022/08/28 00:17:55;;;;;;;0.10;0.10;;;;;;;13.55;86.49;101876.28;5000313;28;20033;-70
2022/08/28 00:20:22;;;;;;;0.10;0.10;;;;;;;13.50;86.91;101873.09;4998341;28;20030;-70
2022/08/28 00:22:47;;;;;;;0.00;0.00;;;;;;;13.47;86.81;101873.31;5000188;28;20030;-70
2022/08/28 00:25:14;;;;;;;0.05;0.05;;;;;;;13.31;86.83;101866.31;5012488;28;20143;-70
2022/08/28 00:27:51;;;;;;;0.00;0.00;;;;;;;13.33;87.15;101871.59;4998182;28;20045;-70
2022/08/28 00:30:28;;;;;;;0.05;0.05;;;;;;;13.22;87.71;101877.78;4998245;28;20030;-70
2022/08/28 00:32:57;;;;;;;0.10;0.10;;;;;;;13.19;88.27;101870.75;4999070;28;20464;-71
2022/08/28 00:35:22;;;;;;;0.10;0.10;;;;;;;13.15;87.59;101869.25;5003857;28;20460;-71
2022/08/28 00:37:49;;;;;;;0.10;0.10;;;;;;;13.12;87.67;101869.47;5005004;28;20072;-71
2022/08/28 00:40:17;;;;;;;0.10;0.10;;;;;;;13.01;87.80;101872.94;4995811;28;20068;-70
2022/08/28 00:42:45;;;;;;;0.00;0.00;;;;;;;12.94;87.94;101869.00;4996856;28;20025;-70
2022/08/28 00:45:12;;;;;;;0.00;0.00;;;;;;;12.86;88.82;101874.06;4996630;28;20113;-71
2022/08/28 00:47:38;;;;;;;0.10;0.10;;;;;;;12.80;89.65;101872.66;4995129;28;20097;-70
2022/08/28 00:50:06;;;;;;;0.00;0.00;;;;;;;12.80;89.51;101869.09;4996531;28;20037;-70
2022/08/28 00:52:31;;;;;;;0.10;0.10;;;;;;;12.80;90.24;101872.66;4997537;28;20030;-70
2022/08/28 00:55:07;;;;;;;0.10;0.10;;;;;;;12.75;89.83;101870.28;4994474;28;20054;-70
2022/08/28 00:57:36;;;;;;;0.10;0.10;;;;;;;12.69;89.52;101853.69;4997218;28;20593;-70
2022/08/28 01:00:05;;;;;;;0.10;0.10;;;;;;;12.74;89.34;101873.94;4996630;28;20365;-71
2022/08/28 01:02:31;;;;;;;0.00;0.00;;;;;;;12.68;89.67;101874.41;4998988;28;20058;-70
2022/08/28 01:04:56;;;;;;;0.10;0.10;;;;;;;12.50;90.59;101843.34;4997145;28;20109;-70
2022/08/28 01:07:22;;;;;;;0.10;0.10;;;;;;;12.53;91.33;101873.63;5001922;28;20032;-70
2022/08/28 01:09:49;;;;;;;0.10;0.10;;;;;;;12.65;91.53;101879.13;5007625;28;20059;-70
2022/08/28 01:12:27;;;;;;;0.10;0.10;;;;;;;12.67;91.06;101875.38;5003863;28;20065;-70
2022/08/28 01:15:00;;;;;;;0.10;0.10;;;;;;;12.64;90.59;101890.88;5003750;28;21287;-70
2022/08/28 01:17:28;;;;;;;0.10;0.10;;;;;;;12.45;90.60;101857.97;4998712;28;20494;-70
2022/08/28 01:19:57;;;;;;;0.10;0.10;;;;;;;12.51;90.43;101874.69;4991693;28;20025;-70
2022/08/28 01:22:36;;;;;;;0.10;0.10;;;;;;;12.53;90.43;101889.81;4999753;28;20457;-70
2022/08/28 01:25:23;;;;;;;0.10;0.10;;;;;;;12.49;90.16;101884.72;5005305;28;20417;-70
2022/08/28 01:27:50;;;;;;;0.10;0.10;;;;;;;12.44;90.35;101890.44;5004694;28;20053;-70
2022/08/28 01:30:18;;;;;;;0.05;0.05;;;;;;;12.28;90.57;101869.06;4998738;28;20025;-70
2022/08/28 01:32:49;;;;;;;0.10;0.10;;;;;;;12.44;90.53;101894.00;4998288;28;20030;-70
2022/08/28 01:35:22;;;;;;;0.00;0.00;;;;;;;12.37;90.31;101899.88;5000017;28;20128;-70
2022/08/28 01:37:47;;;;;;;0.10;0.10;;;;;;;12.32;90.84;101897.53;4999668;28;20477;-70
2022/08/28 01:40:19;;;;;;;0.10;0.10;;;;;;;12.32;90.38;101902.91;4999393;28;20025;-71
2022/08/28 01:42:44;;;;;;;0.00;0.00;;;;;;;12.28;90.52;101899.56;5004914;28;20024;-70
2022/08/28 01:45:13;;;;;;;0.10;0.10;;;;;;;12.35;90.83;101899.13;5000700;28;20034;-70
2022/08/28 01:47:41;;;;;;;0.10;0.10;;;;;;;12.33;90.36;101895.69;5002697;28;20102;-70
2022/08/28 01:50:09;;;;;;;0.00;0.00;;;;;;;12.28;89.88;101899.56;5003386;28;20034;-70
2022/08/28 01:52:35;;;;;;;0.10;0.10;;;;;;;12.20;90.03;101896.53;5011067;28;20077;-70
2022/08/28 01:55:01;;;;;;;0.10;0.10;;;;;;;12.00;90.24;101882.59;5000080;28;20051;-71
2022/08/28 01:57:26;;;;;;;0.10;0.10;;;;;;;11.83;90.29;101867.53;5002108;28;20184;-70
2022/08/28 01:59:53;;;;;;;0.10;0.10;;;;;;;11.98;90.23;101902.44;4996009;28;20038;-70
2022/08/28 02:02:18;;;;;;;0.10;0.10;;;;;;;11.91;90.75;101898.47;4999689;28;20033;-70
2022/08/28 02:04:43;;;;;;;0.00;0.00;;;;;;;11.82;90.46;101895.41;5000958;28;20038;-70
2022/08/28 02:07:09;;;;;;;0.00;0.00;;;;;;;11.74;90.79;101900.44;5002042;28;20343;-70
2022/08/28 02:09:34;;;;;;;0.00;0.00;;;;;;;11.73;90.60;101905.94;4998996;28;20022;-70
2022/08/28 02:12:00;;;;;;;0.10;0.10;;;;;;;11.67;91.00;101909.88;5001937;28;21885;-70
2022/08/28 02:14:25;;;;;;;0.10;0.10;;;;;;;11.66;90.91;101916.22;4998040;28;20026;-70
2022/08/28 02:16:50;;;;;;;0.10;0.10;;;;;;;11.63;90.83;101914.59;5002495;28;20032;-70
2022/08/28 02:19:16;;;;;;;0.00;0.00;;;;;;;11.59;90.60;101907.69;5001503;28;20061;-70
2022/08/28 02:21:41;;;;;;;0.00;0.00;;;;;;;11.61;90.86;101910.28;4998637;28;20049;-70
2022/08/28 02:24:07;;;;;;;0.10;0.10;;;;;;;11.55;90.81;101909.72;4999695;28;20057;-70
2022/08/28 02:26:32;;;;;;;0.00;0.00;;;;;;;11.47;91.03;101905.81;5002658;28;20115;-70
2022/08/28 02:28:58;;;;;;;0.10;0.10;;;;;;;11.50;91.64;101919.06;4999541;28;20045;-70
2022/08/28 02:31:24;;;;;;;0.05;0.05;;;;;;;11.44;91.29;101914.06;5000392;28;20044;-70
2022/08/28 02:33:50;;;;;;;0.10;0.10;;;;;;;11.43;91.24;101918.56;5002241;28;20050;-70
2022/08/28 02:36:15;;;;;;;0.10;0.10;;;;;;;11.45;91.29;101919.34;5000469;28;20028;-71
2022/08/28 02:38:42;;;;;;;0.10;0.10;;;;;;;11.48;91.09;101920.97;5003740;28;20025;-70
2022/08/28 02:41:08;;;;;;;0.00;0.00;;;;;;;11.36;91.23;101918.09;5008851;28;20033;-71
2022/08/28 02:43:34;;;;;;;0.08;0.08;;;;;;;11.35;92.23;101920.91;5002393;28;20040;-71
2022/08/28 02:45:59;;;;;;;0.10;0.10;;;;;;;11.33;92.92;101917.44;5002375;28;20131;-70
2022/08/28 02:48:33;;;;;;;0.10;0.10;;;;;;;11.33;92.00;101918.28;4996212;28;20468;-70
2022/08/28 02:51:05;;;;;;;0.10;0.10;;;;;;;11.28;91.78;101915.03;4997957;28;20029;-70
2022/08/28 02:53:30;;;;;;;0.10;0.10;;;;;;;11.30;91.85;101915.81;4996260;28;20092;-70
2022/08/28 02:55:56;;;;;;;0.00;0.00;;;;;;;11.27;91.64;101915.16;4995249;28;20461;-70
2022/08/28 02:58:22;;;;;;;0.10;0.10;;;;;;;11.31;91.60;101920.22;4997417;28;20399;-71
2022/08/28 03:00:48;;;;;;;0.10;0.10;;;;;;;11.31;92.21;101917.53;5013877;28;20491;-71
2022/08/28 03:03:13;;;;;;;0.10;0.10;;;;;;;11.32;92.32;101918.41;5005343;28;20569;-70
2022/08/28 03:05:39;;;;;;;0.10;0.10;;;;;;;11.30;91.61;101915.81;5004394;28;20033;-70
2022/08/28 03:08:04;;;;;;;0.10;0.10;;;;;;;11.26;91.50;101914.25;4999695;28;20091;-70
2022/08/28 03:10:29;;;;;;;0.10;0.10;;;;;;;11.23;91.91;101914.50;5000136;28;20076;-70
2022/08/28 03:12:55;;;;;;;0.10;0.10;;;;;;;11.21;91.93;101911.88;5001042;28;20130;-70
2022/08/28 03:15:20;;;;;;;0.10;0.10;;;;;;;11.22;92.10;101918.13;4997472;28;20124;-70
2022/08/28 03:17:45;;;;;;;0.10;0.10;;;;;;;11.30;92.20;101915.81;4995501;28;20125;-70
2022/08/28 03:20:11;;;;;;;0.00;0.00;;;;;;;11.32;92.25;101911.19;5001243;28;20506;-70
2022/08/28 03:25:21;;;;;;;0.10;0.10;;;;;;;11.40;92.10;101919.63;4992670;28;20481;-70
2022/08/28 03:27:47;;;;;;;0.00;0.00;;;;;;;11.46;93.46;101918.38;4994986;28;20033;-70
2022/08/28 03:30:13;;;;;;;0.00;0.00;;;;;;;11.43;93.73;101913.19;5001861;28;20358;-70
2022/08/28 03:32:38;;;;;;;0.10;0.10;;;;;;;11.47;93.71;101924.63;4999580;28;20324;-70
2022/08/28 03:35:04;;;;;;;0.10;0.10;;;;;;;11.46;93.92;101926.44;4995868;28;20100;-70
2022/08/28 03:37:30;;;;;;;0.10;0.10;;;;;;;11.50;95.21;101921.75;4997777;28;20042;-70
2022/08/28 03:39:55;;;;;;;0.10;0.10;;;;;;;11.45;95.92;101916.66;5001765;28;20531;-70
2022/08/28 03:42:21;;;;;;;0.10;0.10;;;;;;;11.62;96.59;101917.41;5010230;28;20420;-70
2022/08/28 03:44:47;;;;;;;0.10;0.10;;;;;;;11.68;96.78;101927.72;5001936;28;20453;-70
2022/08/28 03:47:13;;;;;;;0.10;0.10;;;;;;;11.71;97.00;101922.16;5001499;28;21990;-70
2022/08/28 03:49:38;;;;;;;0.10;0.10;;;;;;;11.76;96.91;101927.25;4991759;28;20072;-70
2022/08/28 03:52:03;;;;;;;0.10;0.10;;;;;;;11.80;97.34;101932.31;4997958;28;20030;-70
2022/08/28 03:54:30;;;;;;;0.10;0.10;;;;;;;11.80;96.87;101921.56;4997949;28;20029;-70
2022/08/28 03:56:55;;;;;;;0.10;0.10;;;;;;;11.96;97.70;101940.25;5001685;28;20072;-70
2022/08/28 03:59:20;;;;;;;0.10;0.10;;;;;;;12.04;97.71;101936.22;5005636;28;20065;-70
2022/08/28 04:01:46;;;;;;;0.10;0.10;;;;;;;12.14;97.65;101946.28;4999974;28;22436;-70
2022/08/28 04:04:11;;;;;;;0.10;0.10;;;;;;;12.20;97.71;101945.00;5001778;28;20030;-71
2022/08/28 04:06:37;;;;;;;0.00;0.00;;;;;;;12.22;97.21;101944.88;5005000;28;20087;-70
2022/08/28 04:09:02;;;;;;;0.10;0.10;;;;;;;12.25;97.75;101941.97;5006256;28;20030;-70
2022/08/28 04:11:28;;;;;;;0.10;0.10;;;;;;;12.33;98.08;101949.53;5002086;28;20022;-70
2022/08/28 04:13:53;;;;;;;0.10;0.10;;;;;;;12.42;97.61;101955.19;5004282;28;20064;-70
2022/08/28 04:16:18;;;;;;;0.10;0.10;;;;;;;12.47;97.60;101949.47;5001984;28;20038;-70
2022/08/28 04:18:46;;;;;;;0.10;0.10;;;;;;;12.51;97.46;101948.31;5004802;28;20026;-71
2022/08/28 04:21:17;;;;;;;0.10;0.10;;;;;;;12.52;97.45;101952.72;4999236;28;20026;-70
2022/08/28 04:23:44;;;;;;;0.10;0.10;;;;;;;12.53;97.07;101949.06;4998240;28;20527;-71
2022/08/28 04:26:12;;;;;;;0.10;0.10;;;;;;;12.39;97.09;101930.28;5002792;28;20029;-71
2022/08/28 04:28:37;;;;;;;0.00;0.00;;;;;;;12.49;96.42;101952.06;4999461;28;20033;-71
2022/08/28 04:31:03;;;;;;;0.10;0.10;;;;;;;12.44;96.41;101952.38;4997501;28;20365;-71
2022/08/28 04:33:29;;;;;;;0.10;0.10;;;;;;;12.39;96.27;101963.47;4996837;28;20022;-71
2022/08/28 04:35:55;;;;;;;0.10;0.10;;;;;;;12.35;96.38;101959.25;5002143;28;20037;-71
2022/08/28 04:38:20;;;;;;;0.00;0.00;;;;;;;12.31;95.88;101949.66;5004422;28;20753;-71
2022/08/28 04:40:46;;;;;;;0.10;0.10;;;;;;;12.32;95.85;101959.47;5001599;28;20073;-71
2022/08/28 04:43:11;;;;;;;0.00;0.00;;;;;;;12.22;95.21;101953.84;5002056;28;20045;-71
2022/08/28 04:45:41;;;;;;;0.00;0.00;;;;;;;12.18;94.45;101963.06;5002182;28;20550;-71
2022/08/28 04:48:06;;;;;;;0.10;0.10;;;;;;;11.98;94.31;101959.84;5001103;28;20061;-71
2022/08/28 04:50:32;;;;;;;0.10;0.10;;;;;;;11.89;94.77;101963.13;5000441;28;20436;-71
2022/08/28 04:52:57;;;;;;;0.00;0.00;;;;;;;11.74;94.51;101965.00;4999899;28;20030;-71
2022/08/28 04:55:23;;;;;;;0.10;0.10;;;;;;;11.79;94.74;101970.06;4998120;28;20487;-71
2022/08/28 04:57:48;;;;;;;0.00;0.00;;;;;;;11.69;94.57;101969.81;4999352;28;20524;-71
2022/08/28 05:00:14;;;;;;;0.10;0.10;;;;;;;11.67;94.62;101971.72;5002002;28;20041;-71
2022/08/28 05:02:39;;;;;;;0.10;0.10;;;;;;;11.68;94.97;101977.03;4998300;28;20468;-71
2022/08/28 05:05:04;;;;;;;0.08;0.08;;;;;;;11.68;94.59;101979.72;5002580;28;20048;-71
2022/08/28 05:07:30;;;;;;;0.10;0.10;;;;;;;11.64;94.84;101971.97;4999799;28;20036;-71
2022/08/28 05:09:55;;;;;;;0.10;0.10;;;;;;;11.53;94.75;101968.13;4999897;28;20567;-71
2022/08/28 05:12:21;;;;;;;0.03;0.03;;;;;;;11.53;94.36;101978.88;4996849;28;20491;-71
2022/08/28 05:14:46;;;;;;;0.10;0.10;;;;;;;11.31;94.00;101939.03;4999319;28;20023;-71
2022/08/28 05:17:15;;;;;;;0.00;0.00;;;;;;;11.50;95.70;101987.13;5001792;28;20053;-71
2022/08/28 05:19:40;;;;;;;0.00;0.00;;;;;;;11.52;95.68;101985.22;5005899;28;20048;-71
2022/08/28 05:22:08;;;;;;;0.00;0.00;;;;;;;11.50;95.44;101976.38;4999274;28;20033;-71
2022/08/28 05:24:33;;;;;;;0.00;0.00;;;;;;;11.53;96.01;101989.63;4998367;28;20026;-71
2022/08/28 05:26:58;;;;;;;0.10;0.10;;;;;;;11.54;95.62;101974.34;5001074;28;20103;-71
2022/08/28 05:29:24;;;;;;;0.00;0.00;;;;;;;11.56;95.79;101977.81;5002273;28;20029;-71
2022/08/28 05:31:49;;;;;;;0.10;0.10;;;;;;;11.62;95.57;101992.72;4998611;28;20033;-71
2022/08/28 05:34:15;;;;;;;0.10;0.10;;;;;;;11.65;95.35;101995.22;5004844;28;20025;-71
2022/08/28 05:36:41;;;;;;;0.00;0.00;;;;;;;11.60;95.36;101973.97;5002432;28;20033;-71
2022/08/28 05:39:08;;;;;;;0.10;0.10;;;;;;;11.75;95.37;101992.78;5005326;28;20049;-71
2022/08/28 05:41:34;;;;;;;0.10;0.10;;;;;;;11.80;95.20;101991.53;4999627;28;20026;-71
2022/08/28 05:44:03;;;;;;;0.10;0.10;;;;;;;11.90;95.24;101996.31;4996529;28;20032;-71
2022/08/28 05:46:29;;;;;;;0.10;0.10;;;;;;;11.92;95.34;101989.00;4998934;28;20033;-71
2022/08/28 05:48:54;;;;;;;0.10;0.10;;;;;;;12.02;95.67;101995.53;4995414;28;20026;-71
2022/08/28 05:51:22;;;;;;;0.10;0.10;;;;;;;12.09;95.11;101996.84;4999297;28;20044;-71
2022/08/28 05:53:48;;;;;;;0.10;0.10;;;;;;;12.21;95.56;102002.38;4997151;28;20368;-71
2022/08/28 05:56:19;;;;;;;0.10;0.10;;;;;;;12.16;95.32;101986.53;5002039;28;20025;-71
2022/08/28 05:58:45;;;;;;;0.03;0.03;;;;;;;12.21;95.43;101980.84;4996703;28;20072;-71
2022/08/28 06:01:18;;;;;;;0.10;0.10;;;;;;;12.45;96.03;102010.66;4999181;28;20117;-71
2022/08/28 06:03:46;;;;;;;0.10;0.10;;;;;;;12.49;97.25;101992.44;4996082;28;20034;-71
2022/08/28 06:06:11;;;;;;;0.10;0.10;;;;;;;12.62;97.64;101996.06;4997157;28;20073;-71
2022/08/28 06:08:38;;;;;;;0.10;0.10;;;;;;;12.94;97.39;102011.84;4998956;28;20839;-71
2022/08/28 06:11:06;;;;;;;0.10;0.10;;;;;;;13.15;96.53;102011.31;5020297;28;20117;-71
2022/08/28 06:13:32;;;;;;;0.15;0.15;;;;;;;13.38;95.89;102020.47;5003336;28;20030;-71
2022/08/28 06:15:57;;;;;;;0.10;0.10;;;;;;;13.56;95.39;102014.78;4995648;28;20371;-71
2022/08/28 06:18:23;;;;;;;0.10;0.10;;;;;;;13.54;94.78;101993.28;4998608;28;20026;-71
2022/08/28 06:20:50;;;;;;;0.00;0.00;;;;;;;13.66;94.36;101988.81;5014358;28;20518;-71
2022/08/28 06:23:17;;;;;;;0.05;0.05;;;;;;;13.99;93.41;102018.88;4994622;28;20037;-71
2022/08/28 06:25:47;;;;;;;0.10;0.10;;;;;;;14.13;92.97;102015.16;4993870;28;20273;-71
2022/08/28 06:28:19;;;;;;;0.00;0.00;;;;;;;14.33;92.64;102022.63;4999184;28;20057;-71
2022/08/28 06:30:44;;;;;;;0.10;0.10;;;;;;;14.48;91.81;102019.72;5003524;28;20037;-72
2022/08/28 06:33:11;;;;;;;0.10;0.10;;;;;;;14.58;91.12;102022.59;5002425;28;20022;-71
2022/08/28 06:35:48;;;;;;;0.05;0.05;;;;;;;14.63;91.17;102015.88;5000111;28;20117;-72
2022/08/28 06:38:14;;;;;;;0.10;0.10;;;;;;;14.83;90.44;102027.88;5001109;28;20472;-72
2022/08/28 06:40:45;;;;;;;0.03;0.03;;;;;;;14.90;90.93;102027.41;5000603;28;20721;-72
2022/08/28 06:43:11;;;;;;;0.10;0.10;;;;;;;15.06;89.91;102019.84;5015707;28;20030;-71
2022/08/28 06:45:42;;;;;;;0.10;0.10;;;;;;;15.19;89.57;102030.56;4997296;28;20054;-71
2022/08/28 06:48:09;;;;;;;0.10;0.10;;;;;;;15.17;88.36;102013.59;5003827;28;20657;-70
2022/08/28 06:50:40;;;;;;;0.00;0.00;;;;;;;15.36;87.79;102028.34;5020460;28;20030;-71
2022/08/28 06:53:07;;;;;;;0.00;0.00;;;;;;;15.44;88.15;102018.63;4994547;28;21885;-72
2022/08/28 06:55:33;;;;;;;0.00;0.00;;;;;;;15.63;86.67;102024.41;5000003;28;20026;-73
2022/08/28 06:57:58;;;;;;;0.10;0.10;;;;;;;15.68;85.64;102024.91;4995351;28;20026;-72
2022/08/28 07:00:24;;;;;;;0.10;0.10;;;;;;;15.76;85.56;102027.84;5004764;28;20025;-72
2022/08/28 07:02:49;;;;;;;0.10;0.10;;;;;;;15.95;84.80;102034.50;4994793;28;20061;-72
2022/08/28 07:05:14;;;;;;;0.10;0.10;;;;;;;16.15;84.31;102038.28;5000086;28;20078;-71
2022/08/28 07:07:40;;;;;;;0.05;0.05;;;;;;;16.14;82.44;102031.16;5003721;28;20040;-73
2022/08/28 07:10:05;;;;;;;0.00;0.00;;;;;;;16.30;82.30;102037.00;5000162;28;20029;-72
2022/08/28 07:12:30;;;;;;;0.03;0.03;;;;;;;16.45;82.56;102036.69;5001248;28;20741;-72
2022/08/28 07:14:56;;;;;;;0.00;0.00;;;;;;;16.61;81.00;102048.00;5001625;28;20034;-72
2022/08/28 07:17:21;;;;;;;0.00;0.00;;;;;;;16.77;80.07;102052.97;4999139;28;20068;-70
2022/08/28 07:19:46;;;;;;;0.10;0.10;;;;;;;16.87;80.04;102046.75;4994609;28;20142;-72
2022/08/28 07:22:12;;;;;;;0.10;0.10;;;;;;;16.99;80.74;102044.84;4996110;28;20036;-74
2022/08/28 07:24:37;;;;;;;0.10;0.10;;;;;;;17.04;79.93;102038.06;4991097;28;20042;-72
2022/08/28 07:27:04;;;;;;;0.10;0.10;;;;;;;17.23;75.11;102044.59;4994852;28;20117;-72
2022/08/28 07:29:29;;;;;;;0.10;0.10;;;;;;;17.31;76.79;102039.34;4994198;28;20481;-73
2022/08/28 07:31:57;;;;;;;0.00;0.00;;;;;;;17.42;76.37;102045.69;5000438;28;20415;-72
2022/08/28 07:34:22;;;;;;;0.00;0.00;;;;;;;17.49;75.14;102045.00;5006697;28;20060;-72
2022/08/28 07:36:50;;;;;;;0.00;0.00;;;;;;;17.57;75.70;102049.78;5006269;28;20038;-72
2022/08/28 07:39:16;;;;;;;0.00;0.00;;;;;;;17.76;75.08;102051.69;5002150;28;20048;-72
2022/08/28 07:41:42;;;;;;;0.00;0.00;;;;;;;17.87;74.86;102048.03;5004408;28;20046;-72
2022/08/28 07:46:59;;;;;;;0.05;0.05;;;;;;;18.06;72.01;102043.66;5005508;28;20114;-70
2022/08/28 07:49:24;;;;;;;0.00;0.00;;;;;;;18.14;72.24;102044.69;5001777;28;20026;-71
2022/08/28 07:51:50;;;;;;;0.00;0.00;;;;;;;18.17;72.44;102040.81;5001788;28;20045;-73
2022/08/28 07:54:16;;;;;;;0.00;0.00;;;;;;;18.38;72.05;102045.28;4998489;28;20036;-72
2022/08/28 07:56:41;;;;;;;0.00;0.00;;;;;;;18.45;72.15;102049.13;5005065;28;20034;-69
2022/08/28 07:59:09;;;;;;;0.00;0.00;;;;;;;18.62;70.90;102050.28;5004572;28;20603;-72
2022/08/28 08:01:40;;;;;;;0.03;0.03;;;;;;;18.52;69.71;102054.91;5022779;28;20036;-71
2022/08/28 08:04:08;;;;;;;0.00;0.00;;;;;;;18.45;69.35;102043.69;5006432;28;20033;-72
2022/08/28 08:06:35;;;;;;;0.00;0.00;;;;;;;18.55;69.60;102057.31;5003902;28;20030;-74
2022/08/28 08:09:02;;;;;;;0.00;0.00;;;;;;;18.69;69.44;102064.19;5001203;28;20068;-72
2022/08/28 08:11:28;;;;;;;0.10;0.10;;;;;;;18.77;67.19;102066.19;5002295;28;20462;-72
2022/08/28 08:13:53;;;;;;;0.00;0.00;;;;;;;18.65;66.96;102043.72;5006364;28;20033;-72
2022/08/28 08:16:21;;;;;;;0.08;0.08;;;;;;;18.78;66.60;102068.75;4998015;28;20038;-73
2022/08/28 08:18:48;;;;;;;0.00;0.00;;;;;;;18.58;65.54;102071.50;4997080;28;20613;-75
2022/08/28 08:21:15;;;;;;;0.00;0.00;;;;;;;18.54;65.38;102066.50;5002692;28;20095;-72
2022/08/28 08:23:40;;;;;;;0.10;0.10;;;;;;;18.40;65.34;102051.44;4997225;28;20117;-71
2022/08/28 08:26:09;;;;;;;0.00;0.00;;;;;;;18.33;65.87;102077.47;4997433;28;20040;-75
2022/08/28 08:28:36;;;;;;;0.00;0.00;;;;;;;18.38;66.42;102076.03;5006002;28;20037;-72
2022/08/28 08:31:23;;;;;;;0.05;0.05;;;;;;;18.38;65.52;102072.47;5004817;28;20475;-72
2022/08/28 08:33:51;;;;;;;0.00;0.00;;;;;;;18.27;66.23;102052.56;5003216;28;20037;-73
2022/08/28 08:36:20;;;;;;;0.00;0.00;;;;;;;18.58;65.74;102070.63;5001908;28;20037;-72
2022/08/28 08:38:45;;;;;;;0.00;0.00;;;;;;;18.85;66.22;102069.03;5001307;28;20555;-72
2022/08/28 08:41:16;;;;;;;0.00;0.00;;;;;;;19.14;64.19;102060.88;5000915;28;20040;-74
2022/08/28 08:43:56;;;;;;;0.10;0.10;;;;;;;19.42;63.49;102071.84;5005816;28;20040;-70
2022/08/28 08:46:27;;;;;;;0.10;0.10;;;;;;;19.64;62.04;102062.44;5021892;28;20100;-71
2022/08/28 08:48:52;;;;;;;0.00;0.00;;;;;;;20.02;63.45;102067.88;5003703;28;20022;-72
2022/08/28 08:51:24;;;;;;;0.00;0.00;;;;;;;20.23;60.53;102072.22;5006081;28;20476;-72
2022/08/28 08:54:05;;;;;;;0.03;0.03;;;;;;;20.29;58.90;102070.72;5002371;28;20104;-75
2022/08/28 08:56:32;;;;;;;0.00;0.00;;;;;;;20.13;59.54;102064.06;5003098;28;20034;-71
2022/08/28 08:59:00;;;;;;;0.00;0.00;;;;;;;19.98;59.98;102062.88;5006698;28;20380;-72
2022/08/28 09:01:37;;;;;;;0.00;0.00;;;;;;;19.75;59.51;102068.72;4987227;28;20641;-74
2022/08/28 09:04:12;;;;;;;0.00;0.00;;;;;;;19.38;59.63;102070.41;5000935;28;20109;-74
2022/08/28 09:06:48;;;;;;;0.00;0.00;;;;;;;19.18;61.94;102067.75;4998817;28;20050;-74
2022/08/28 09:09:20;;;;;;;0.00;0.00;;;;;;;19.15;60.57;102065.31;5007547;28;20025;-73
2022/08/28 09:11:55;;;;;;;0.00;0.00;;;;;;;18.92;60.77;102062.03;5006762;28;20026;-73
2022/08/28 09:14:48;;;;;;;0.00;0.00;;;;;;;18.89;61.32;102073.19;4998261;28;20036;-74
2022/08/28 09:17:16;;;;;;;0.00;0.00;;;;;;;18.76;61.88;102053.59;5000420;28;20076;-75
2022/08/28 09:19:42;;;;;;;0.00;0.00;;;;;;;19.16;62.76;102068.88;5005908;28;20045;-74
2022/08/28 09:22:07;;;;;;;0.00;0.00;;;;;;;19.45;61.60;102060.66;5000137;28;20130;-73
2022/08/28 09:24:35;;;;;;;0.00;0.00;;;;;;;19.76;60.58;102068.53;5002154;28;20026;-75
2022/08/28 09:27:21;;;;;;;0.00;0.00;;;;;;;19.68;59.31;102059.41;5007078;28;20434;-69
2022/08/28 09:30:04;;;;;;;0.00;0.00;;;;;;;19.95;60.24;102071.34;5004602;28;21353;-76
2022/08/28 09:32:43;;;;;;;0.00;0.00;;;;;;;20.08;58.12;102067.25;4996503;28;20026;-74
2022/08/28 09:35:24;;;;;;;0.00;0.00;;;;;;;20.54;58.08;102063.63;5000890;28;20033;-73
2022/08/28 09:37:49;;;;;;;0.00;0.00;;;;;;;20.81;57.12;102060.00;4999224;28;20083;-72
2022/08/28 09:43:25;;;;;;;0.00;0.00;;;;;;;20.90;55.69;102036.38;5003802;28;20026;-70
2022/08/28 09:43:26;;;;;;;0.00;0.00;;;;;;;20.85;55.22;102068.72;5002817;28;20067;-71
2022/08/28 09:46:19;;;;;;;0.00;0.00;;;;;;;20.77;55.46;102053.16;5001098;28;20379;-74
2022/08/28 09:48:46;;;;;;;0.00;0.00;;;;;;;20.98;55.16;102071.03;4996398;28;20503;-70
2022/08/28 09:51:13;;;;;;;0.00;0.00;;;;;;;21.29;55.01;102070.59;4997556;28;20034;-68
2022/08/28 09:53:51;;;;;;;0.00;0.00;;;;;;;21.41;53.51;102069.31;5001175;28;20033;-72
2022/08/28 09:56:32;;;;;;;0.00;0.00;;;;;;;21.55;52.76;102070.59;4998312;28;20076;-69
2022/08/28 09:59:16;;;;;;;0.00;0.00;;;;;;;21.39;52.99;102067.75;5004717;28;20018;-72
2022/08/28 10:01:41;;;;;;;0.00;0.00;;;;;;;21.48;52.65;102065.91;5015066;28;20044;-72
2022/08/28 10:04:23;;;;;;;0.00;0.00;;;;;;;21.61;52.78;102060.91;5003617;28;20045;-73
2022/08/28 10:06:54;;;;;;;0.00;0.00;;;;;;;21.49;53.08;102053.97;4996362;28;20283;-72
2022/08/28 10:09:30;;;;;;;0.00;0.00;;;;;;;21.65;55.21;102061.44;5002544;28;20468;-72
2022/08/28 10:12:25;;;;;;;0.00;0.00;;;;;;;21.86;50.52;102063.75;4995900;28;20037;-72
2022/08/28 10:15:07;;;;;;;0.00;0.00;;;;;;;21.92;50.72;102063.09;5000924;28;20052;-72
2022/08/28 10:17:47;;;;;;;0.00;0.00;;;;;;;22.11;49.86;102067.44;4997664;28;20088;-73
2022/08/28 10:20:35;;;;;;;0.00;0.00;;;;;;;22.07;49.83;102063.31;5006452;28;20029;-73
2022/08/28 10:23:03;;;;;;;0.00;0.00;;;;;;;22.08;53.45;102064.16;5005320;28;20030;-74
2022/08/28 10:25:46;;;;;;;0.00;0.00;;;;;;;21.78;49.75;102064.56;5001480;28;20468;-74
2022/08/28 10:28:36;;;;;;;0.00;0.00;;;;;;;21.87;51.26;102069.03;5003765;28;20033;-72
2022/08/28 10:31:18;;;;;;;0.00;0.00;;;;;;;22.35;51.25;102057.56;5006743;28;20499;-74
2022/08/28 10:34:05;;;;;;;0.00;0.00;;;;;;;23.10;52.98;102057.63;5011259;28;20041;-75
2022/08/28 10:36:32;;;;;;;0.00;0.00;;;;;;;23.49;49.41;102055.00;5000749;28;20034;-71
2022/08/28 10:39:36;;;;;;;0.00;0.00;;;;;;;23.43;45.74;102065.81;4999740;28;20026;-73
2022/08/28 10:42:03;;;;;;;0.00;0.00;;;;;;;23.09;47.64;102064.13;4993866;28;20481;-71
2022/08/28 10:44:39;;;;;;;0.00;0.00;;;;;;;22.62;46.28;102040.00;5005124;28;20088;-71
2022/08/28 10:47:06;;;;;;;0.10;0.10;;;;;;;22.47;48.57;102063.63;5000557;28;20128;-71
2022/08/28 10:49:39;;;;;;;0.30;0.30;;;;;;;22.37;49.74;102032.78;4999120;28;20575;-71
2022/08/28 10:52:13;;;;;;;;;;;;;;;22.88;48.29;102052.66;5022909;28;20033;-74
2022/08/28 10:54:59;;;;;;;0.00;0.00;;;;;;;22.96;47.24;102057.28;5004987;28;19921;-72
2022/08/28 10:57:37;;;;;;;0.00;0.00;;;;;;;22.93;47.31;102054.88;5003927;28;20141;-72
2022/08/28 11:00:11;;;;;;;0.10;0.00;;;;;;;23.40;46.74;102053.28;5011140;28;20043;-70
2022/08/28 11:02:40;;;;;;;0.00;0.00;;;;;;;23.84;44.53;102048.34;5001708;28;20030;-70
2022/08/28 11:05:05;;;;;;;0.00;0.00;;;;;;;24.29;44.17;102057.72;4992172;28;20026;-73
2022/08/28 11:07:37;;;;;;;0.00;0.00;;;;;;;24.64;43.22;102054.56;5008979;28;20034;-72
2022/08/28 11:10:18;;;;;;;0.00;0.00;;;;;;;24.91;42.19;102063.28;5011957;28;20022;-69
2022/08/28 11:12:43;;;;;;;0.00;0.00;;;;;;;25.05;41.04;102053.38;5012759;28;20033;-72
2022/08/28 11:15:27;;;;;;;0.00;0.00;;;;;;;24.99;41.70;102058.56;5003663;28;20034;-74
2022/08/28 11:18:13;;;;;;;;;;;;;;;24.65;41.73;102051.63;5012965;28;20034;-74
2022/08/28 11:20:40;;;;;;;0.00;0.00;;;;;;;24.56;40.68;102055.47;5001090;28;19917;-71
2022/08/28 11:23:11;;;;;;;0.00;0.00;;;;;;;24.73;41.77;102050.75;5006288;28;20034;-71
2022/08/28 11:25:39;;;;;;;0.00;0.00;;;;;;;25.23;42.96;102058.53;4998200;28;20038;-75
2022/08/28 11:28:22;;;;;;;0.00;0.00;;;;;;;25.49;39.76;102049.84;5003051;28;20080;-77
2022/08/28 11:31:04;;;;;;;0.00;0.00;;;;;;;26.17;39.56;102059.81;5007697;28;20049;-73
2022/08/28 11:33:49;;;;;;;0.00;0.00;;;;;;;26.20;37.24;102056.69;5007847;28;20507;-73
2022/08/28 11:36:20;;;;;;;0.00;0.00;;;;;;;25.77;38.86;102053.81;5011468;28;20037;-73
2022/08/28 11:38:52;;;;;;;0.00;0.00;;;;;;;25.41;38.98;102058.16;5006517;28;20476;-71
2022/08/28 11:41:32;;;;;;;0.00;0.00;;;;;;;25.35;39.73;102064.41;5003774;28;20034;-71